createdAt,value
2017-08-07T14:41:11.546Z,23.70
2017-08-07T14:43:55.824Z,23.60
2017-08-07T14:46:22.335Z,23.60
2017-08-07T14:48:49.359Z,23.80
2017-08-07T14:51:15.645Z,23.80
2017-08-07T14:53:42.655Z,23.90
2017-08-07T14:56:08.927Z,23.90
2017-08-07T14:58:35.193Z,23.90
2017-08-07T15:01:01.442Z,23.90
2017-08-07T15:03:27.784Z,23.90
2017-08-07T15:05:54.076Z,23.90
2017-08-07T15:08:20.340Z,23.90
2017-08-07T15:10:47.033Z,23.90
2017-08-07T15:13:13.343Z,23.90
2017-08-07T15:15:39.605Z,24.00
2017-08-07T15:18:05.886Z,23.90
2017-08-07T15:20:32.202Z,23.90
2017-08-07T15:22:58.476Z,23.80
2017-08-07T15:25:25.780Z,23.80
2017-08-07T15:27:52.956Z,23.80
2017-08-07T15:30:19.236Z,23.80
2017-08-07T15:32:45.524Z,23.80
2017-08-07T15:35:11.784Z,23.70
2017-08-07T15:37:38.779Z,23.70
2017-08-07T15:40:05.023Z,23.60
2017-08-07T15:42:31.284Z,23.70
2017-08-07T15:44:57.549Z,23.80
2017-08-07T15:47:23.795Z,23.80
2017-08-07T15:49:50.075Z,23.80
2017-08-07T15:52:16.315Z,23.70
2017-08-07T15:54:42.564Z,23.70
2017-08-07T15:57:09.570Z,23.90
2017-08-07T15:59:35.806Z,23.80
2017-08-07T16:02:02.078Z,23.90
2017-08-07T16:04:28.359Z,23.90
2017-08-07T16:06:54.702Z,23.90
2017-08-07T16:09:20.955Z,23.80
2017-08-07T16:11:47.206Z,23.80
2017-08-07T16:14:13.451Z,23.80
2017-08-07T16:16:40.455Z,23.90
2017-08-07T16:19:06.714Z,23.90
2017-08-07T16:21:32.968Z,24.00
2017-08-07T16:23:59.224Z,24.00
2017-08-07T16:26:25.688Z,24.00
2017-08-07T16:28:52.014Z,23.90
2017-08-07T16:31:18.269Z,23.90
2017-08-07T16:33:44.549Z,24.00
2017-08-07T16:36:11.579Z,24.00
2017-08-07T16:38:37.850Z,23.90
2017-08-07T16:41:04.192Z,23.90
2017-08-07T16:43:30.462Z,23.80
2017-08-07T16:45:57.475Z,23.70
2017-08-07T16:48:23.728Z,23.70
2017-08-07T16:50:49.985Z,23.70
2017-08-07T16:53:16.263Z,23.70
2017-08-07T16:55:43.299Z,23.60
2017-08-07T16:58:09.569Z,23.60
2017-08-07T17:00:35.858Z,23.50
2017-08-07T17:03:02.139Z,23.50
2017-08-07T17:05:28.428Z,23.50
2017-08-07T17:07:55.480Z,23.50
2017-08-07T17:10:21.765Z,23.50
2017-08-07T17:12:48.065Z,23.50
2017-08-07T17:15:14.361Z,23.40
2017-08-07T17:17:40.676Z,23.50
2017-08-07T17:20:06.973Z,23.40
2017-08-07T17:22:33.237Z,23.40
2017-08-07T17:24:59.518Z,23.30
2017-08-07T17:27:26.583Z,23.30
2017-08-07T17:29:53.608Z,23.20
2017-08-07T17:32:19.994Z,23.20
2017-08-07T17:34:47.003Z,23.10
2017-08-07T17:37:13.297Z,23.10
2017-08-07T17:39:39.562Z,23.00
2017-08-07T17:42:05.860Z,23.00
2017-08-07T17:44:32.122Z,23.00
2017-08-07T17:46:58.388Z,22.90
2017-08-07T17:49:24.681Z,22.90
2017-08-07T17:51:50.980Z,22.90
2017-08-07T17:54:17.293Z,22.90
2017-08-07T17:56:43.551Z,22.80
2017-08-07T17:59:09.803Z,22.80
2017-08-07T18:01:36.067Z,22.80
2017-08-07T18:04:02.341Z,22.80
2017-08-07T18:06:29.355Z,22.80
2017-08-07T18:08:55.611Z,22.80
2017-08-07T18:11:21.874Z,22.80
2017-08-07T18:13:48.192Z,22.70
2017-08-07T18:16:14.446Z,22.70
2017-08-07T18:18:40.753Z,22.70
2017-08-07T18:21:07.034Z,22.60
2017-08-07T18:23:33.278Z,22.70
2017-08-07T18:25:59.557Z,22.70
2017-08-07T18:28:25.855Z,22.70
2017-08-07T18:30:52.136Z,22.70
2017-08-07T18:33:18.416Z,22.70
2017-08-07T18:35:44.697Z,22.70
2017-08-07T18:38:10.973Z,22.70
2017-08-07T18:40:37.245Z,22.60
2017-08-07T18:43:03.498Z,22.60
2017-08-07T18:45:29.762Z,22.60
2017-08-07T18:47:56.763Z,22.50
2017-08-07T18:50:23.192Z,22.50
2017-08-07T18:52:49.470Z,22.50
2017-08-07T18:55:15.761Z,22.50
2017-08-07T18:57:48.869Z,22.50
2017-08-07T19:00:15.163Z,22.50
2017-08-07T19:02:41.461Z,22.50
2017-08-07T19:05:07.742Z,22.50
2017-08-07T19:07:34.153Z,22.50
2017-08-07T19:10:00.496Z,22.50
2017-08-07T19:12:27.600Z,22.40
2017-08-07T19:14:54.683Z,22.40
2017-08-07T19:17:21.045Z,22.30
2017-08-07T19:19:47.315Z,22.30
2017-08-07T19:22:13.623Z,22.20
2017-08-07T19:24:39.928Z,22.20
2017-08-07T19:27:06.270Z,22.10
2017-08-07T19:29:32.624Z,22.10
2017-08-07T19:31:59.015Z,22.10
2017-08-07T19:34:25.350Z,22.00
2017-08-07T19:36:51.746Z,21.80
2017-08-07T19:39:18.024Z,21.60
2017-08-07T19:41:44.475Z,21.60
2017-08-07T19:44:10.918Z,21.60
2017-08-07T19:46:37.208Z,21.60
2017-08-07T19:49:03.505Z,21.50
2017-08-07T19:51:29.831Z,21.50
2017-08-07T19:53:56.148Z,21.40
2017-08-07T19:56:22.466Z,21.50
2017-08-07T19:58:48.752Z,21.50
2017-08-07T20:01:15.076Z,21.50
2017-08-07T20:03:42.127Z,21.80
2017-08-07T20:06:08.442Z,21.70
2017-08-07T20:08:34.746Z,21.80
2017-08-07T20:11:01.759Z,21.80
2017-08-07T20:13:28.065Z,21.80
2017-08-07T20:15:54.367Z,21.80
2017-08-07T20:18:20.672Z,21.60
2017-08-07T20:20:46.941Z,21.40
2017-08-07T20:23:13.231Z,21.30
2017-08-07T20:25:39.491Z,21.30
2017-08-07T20:28:06.540Z,21.20
2017-08-07T20:30:32.841Z,21.20
2017-08-07T20:32:59.144Z,21.20
2017-08-07T20:35:25.397Z,21.20
2017-08-07T20:37:51.672Z,21.20
2017-08-07T20:40:17.931Z,21.10
2017-08-07T20:42:44.253Z,21.10
2017-08-07T20:45:10.556Z,21.10
2017-08-07T20:47:36.834Z,21.00
2017-08-07T20:50:03.849Z,21.00
2017-08-07T20:52:30.116Z,21.00
2017-08-07T20:54:56.422Z,21.10
2017-08-07T20:57:22.720Z,21.10
2017-08-07T20:59:48.984Z,21.10
2017-08-07T21:02:15.261Z,21.00
2017-08-07T21:04:41.564Z,20.90
2017-08-07T21:07:07.841Z,20.90
2017-08-07T21:09:34.879Z,20.80
2017-08-07T21:12:01.177Z,20.80
2017-08-07T21:14:34.412Z,20.90
2017-08-07T21:17:00.681Z,20.90
2017-08-07T21:19:27.698Z,20.90
2017-08-07T21:21:53.976Z,20.90
2017-08-07T21:24:20.255Z,20.80
2017-08-07T21:26:47.279Z,20.90
2017-08-07T21:29:13.522Z,20.90
2017-08-07T21:31:39.828Z,20.90
2017-08-07T21:34:06.094Z,21.00
2017-08-07T21:36:32.357Z,21.00
2017-08-07T21:38:58.628Z,20.90
2017-08-07T21:41:24.888Z,20.90
2017-08-07T21:43:51.165Z,20.90
2017-08-07T21:46:17.427Z,21.00
2017-08-07T21:48:43.729Z,20.90
2017-08-07T21:51:10.036Z,20.90
2017-08-07T21:53:36.306Z,20.80
2017-08-07T21:56:02.570Z,20.70
2017-08-07T21:58:28.915Z,20.60
2017-08-07T22:00:55.976Z,20.60
2017-08-07T22:03:22.230Z,20.60
2017-08-07T22:05:48.502Z,20.50
2017-08-07T22:08:15.520Z,20.40
2017-08-07T22:10:41.788Z,20.40
2017-08-07T22:13:08.069Z,20.40
2017-08-07T22:15:35.106Z,20.30
2017-08-07T22:18:01.371Z,20.20
2017-08-07T22:20:28.387Z,20.30
2017-08-07T22:22:54.688Z,20.30
2017-08-07T22:25:21.708Z,20.20
2017-08-07T22:27:47.995Z,20.20
2017-08-07T22:30:15.084Z,19.90
2017-08-07T22:32:41.366Z,19.90
2017-08-07T22:35:07.643Z,19.90
2017-08-07T22:37:33.909Z,19.90
2017-08-07T22:40:00.191Z,19.90
2017-08-07T22:42:26.486Z,20.00
2017-08-07T22:44:52.801Z,20.00
2017-08-07T22:47:19.092Z,19.90
2017-08-07T22:49:46.121Z,20.00
2017-08-07T22:52:12.427Z,20.00
2017-08-07T22:54:38.722Z,20.00
2017-08-07T22:57:04.985Z,20.00
2017-08-07T22:59:31.284Z,19.90
2017-08-07T23:01:57.581Z,19.90
2017-08-07T23:04:23.842Z,19.80
2017-08-07T23:06:50.219Z,19.80
2017-08-07T23:09:16.510Z,19.60
2017-08-07T23:11:42.794Z,19.60
2017-08-07T23:14:09.072Z,19.50
2017-08-07T23:16:35.373Z,19.40
2017-08-07T23:19:02.388Z,19.30
2017-08-07T23:21:28.668Z,19.30
2017-08-07T23:23:55.024Z,19.30
2017-08-07T23:26:21.273Z,19.30
2017-08-07T23:28:48.120Z,19.20
2017-08-07T23:31:14.404Z,19.10
2017-08-07T23:33:41.411Z,19.20
2017-08-07T23:36:07.691Z,19.20
2017-08-07T23:38:33.976Z,19.20
2017-08-07T23:41:00.280Z,19.20
2017-08-07T23:43:27.314Z,19.20
2017-08-07T23:45:53.574Z,19.10
2017-08-07T23:48:19.828Z,19.10
2017-08-07T23:50:46.095Z,19.00
2017-08-07T23:53:12.364Z,19.00
2017-08-07T23:55:38.664Z,19.10
2017-08-07T23:58:04.935Z,19.00
